sensor_id;sensor_type;location;lat;lon;timestamp;pressure;altitude;pressure_sealevel;temperature;humidity
29433;BME280;16405;53.964;13.448;2023-02-21T00:00:48;100391.25;;;5.70;96.67
29433;BME280;16405;53.964;13.448;2023-02-21T00:03:33;100384.44;;;5.65;96.71
29433;BME280;16405;53.964;13.448;2023-02-21T00:06:20;100392.28;;;5.65;97.01
29433;BME280;16405;53.964;13.448;2023-02-21T00:09:04;100386.25;;;5.63;97.49
29433;BME280;16405;53.964;13.448;2023-02-21T00:11:49;100376.75;;;5.60;98.05
29433;BME280;16405;53.964;13.448;2023-02-21T00:14:44;100379.38;;;5.60;98.45
29433;BME280;16405;53.964;13.448;2023-02-21T00:17:28;100385.56;;;5.58;99.13
29433;BME280;16405;53.964;13.448;2023-02-21T00:20:13;100386.56;;;5.53;99.27
29433;BME280;16405;53.964;13.448;2023-02-21T00:22:57;100393.66;;;5.48;99.50
29433;BME280;16405;53.964;13.448;2023-02-21T00:25:42;100391.00;;;5.50;100.00
29433;BME280;16405;53.964;13.448;2023-02-21T00:28:37;100392.84;;;5.46;100.00
29433;BME280;16405;53.964;13.448;2023-02-21T00:31:33;100394.69;;;5.44;100.00
29433;BME280;16405;53.964;13.448;2023-02-21T00:34:24;100392.19;;;5.40;100.00
29433;BME280;16405;53.964;13.448;2023-02-21T00:37:08;100383.66;;;5.34;100.00
29433;BME280;16405;53.964;13.448;2023-02-21T00:39:53;100387.22;;;5.32;100.00
29433;BME280;16405;53.964;13.448;2023-02-21T00:42:43;100390.66;;;5.32;100.00
29433;BME280;16405;53.964;13.448;2023-02-21T00:45:28;100380.47;;;5.25;100.00
29433;BME280;16405;53.964;13.448;2023-02-21T00:48:22;100376.09;;;5.25;100.00
29433;BME280;16405;53.964;13.448;2023-02-21T00:51:16;100354.44;;;5.22;100.00
29433;BME280;16405;53.964;13.448;2023-02-21T00:54:01;100356.97;;;5.25;100.00
29433;BME280;16405;53.964;13.448;2023-02-21T00:56:45;100357.03;;;5.23;100.00
29433;BME280;16405;53.964;13.448;2023-02-21T00:59:12;100355.38;;;5.21;99.57
29433;BME280;16405;53.964;13.448;2023-02-21T01:01:56;100349.34;;;5.19;99.51
29433;BME280;16405;53.964;13.448;2023-02-21T01:05:04;100359.81;;;5.17;99.34
29433;BME280;16405;53.964;13.448;2023-02-21T01:07:49;100349.56;;;5.11;99.12
29433;BME280;16405;53.964;13.448;2023-02-21T01:10:42;100353.00;;;5.11;99.55
29433;BME280;16405;53.964;13.448;2023-02-21T01:13:27;100358.38;;;5.07;99.23
29433;BME280;16405;53.964;13.448;2023-02-21T01:19:13;100358.50;;;5.02;99.61
29433;BME280;16405;53.964;13.448;2023-02-21T01:21:58;100358.53;;;5.01;99.65
29433;BME280;16405;53.964;13.448;2023-02-21T01:24:51;100358.66;;;4.98;100.00
29433;BME280;16405;53.964;13.448;2023-02-21T01:27:36;100365.66;;;4.96;100.00
29433;BME280;16405;53.964;13.448;2023-02-21T01:30:22;100363.94;;;4.94;100.00
29433;BME280;16405;53.964;13.448;2023-02-21T01:33:07;100370.06;;;4.93;100.00
29433;BME280;16405;53.964;13.448;2023-02-21T01:35:51;100370.09;;;4.92;100.00
29433;BME280;16405;53.964;13.448;2023-02-21T01:38:45;100367.50;;;4.92;100.00
29433;BME280;16405;53.964;13.448;2023-02-21T01:41:59;100377.06;;;4.93;100.00
29433;BME280;16405;53.964;13.448;2023-02-21T01:44:47;100368.47;;;4.88;100.00
29433;BME280;16405;53.964;13.448;2023-02-21T01:47:33;100378.97;;;4.86;100.00
29433;BME280;16405;53.964;13.448;2023-02-21T01:50:25;100377.13;;;4.90;100.00
29433;BME280;16405;53.964;13.448;2023-02-21T01:53:24;100380.69;;;4.87;100.00
29433;BME280;16405;53.964;13.448;2023-02-21T01:56:09;100385.09;;;4.85;100.00
29433;BME280;16405;53.964;13.448;2023-02-21T01:58:58;100383.28;;;4.87;100.00
29433;BME280;16405;53.964;13.448;2023-02-21T02:04:56;100387.81;;;4.81;100.00
29433;BME280;16405;53.964;13.448;2023-02-21T02:07:45;100386.03;;;4.83;100.00
29433;BME280;16405;53.964;13.448;2023-02-21T02:10:29;100392.97;;;4.84;100.00
29433;BME280;16405;53.964;13.448;2023-02-21T02:25:23;100414.09;;;5.06;100.00
29433;BME280;16405;53.964;13.448;2023-02-21T02:34:19;100402.66;;;5.10;99.67
29433;BME280;16405;53.964;13.448;2023-02-21T02:36:50;100420.66;;;5.19;98.80
29433;BME280;16405;53.964;13.448;2023-02-21T02:42:06;100424.94;;;5.22;97.57
29433;BME280;16405;53.964;13.448;2023-02-21T02:44:40;100430.16;;;5.22;97.04
29433;BME280;16405;53.964;13.448;2023-02-21T02:47:21;100415.56;;;5.14;96.87
29433;BME280;16405;53.964;13.448;2023-02-21T02:49:56;100419.88;;;5.16;96.79
29433;BME280;16405;53.964;13.448;2023-02-21T02:52:23;100417.34;;;5.14;96.12
29433;BME280;16405;53.964;13.448;2023-02-21T02:55:20;100423.31;;;5.18;95.52
29433;BME280;16405;53.964;13.448;2023-02-21T02:57:55;100417.22;;;5.17;95.26
29433;BME280;16405;53.964;13.448;2023-02-21T03:00:22;100414.72;;;5.14;95.11
29433;BME280;16405;53.964;13.448;2023-02-21T03:03:16;100423.25;;;5.19;95.21
29433;BME280;16405;53.964;13.448;2023-02-21T03:09:08;100407.91;;;5.08;95.16
29433;BME280;16405;53.964;13.448;2023-02-21T03:11:55;100398.50;;;5.03;95.00
29433;BME280;16405;53.964;13.448;2023-02-21T03:14:36;100409.81;;;5.03;95.07
29433;BME280;16405;53.964;13.448;2023-02-21T03:17:10;100428.88;;;5.05;95.63
29433;BME280;16405;53.964;13.448;2023-02-21T03:19:45;100435.94;;;5.02;95.36
29433;BME280;16405;53.964;13.448;2023-02-21T03:22:17;100429.16;;;4.94;95.52
29433;BME280;16405;53.964;13.448;2023-02-21T03:24:55;100430.22;;;4.89;95.84
29433;BME280;16405;53.964;13.448;2023-02-21T03:27:34;100429.31;;;4.90;96.12
29433;BME280;16405;53.964;13.448;2023-02-21T03:30:27;100423.38;;;4.85;96.17
29433;BME280;16405;53.964;13.448;2023-02-21T03:32:56;100427.75;;;4.84;96.45
29433;BME280;16405;53.964;13.448;2023-02-21T03:35:28;100427.06;;;4.78;96.30
29433;BME280;16405;53.964;13.448;2023-02-21T03:37:56;100428.69;;;4.82;96.69
29433;BME280;16405;53.964;13.448;2023-02-21T03:40:34;100428.72;;;4.80;96.29
29433;BME280;16405;53.964;13.448;2023-02-21T03:43:03;100431.31;;;4.80;96.27
29433;BME280;16405;53.964;13.448;2023-02-21T03:45:42;100436.41;;;4.85;95.96
29433;BME280;16405;53.964;13.448;2023-02-21T03:48:22;100439.19;;;4.79;95.74
29433;BME280;16405;53.964;13.448;2023-02-21T03:51:13;100439.22;;;4.77;96.00
29433;BME280;16405;53.964;13.448;2023-02-21T03:53:42;100444.50;;;4.76;95.71
29433;BME280;16405;53.964;13.448;2023-02-21T03:56:20;100439.50;;;4.66;95.54
29433;BME280;16405;53.964;13.448;2023-02-21T03:58:45;100439.50;;;4.66;95.84
29433;BME280;16405;53.964;13.448;2023-02-21T04:01:35;100429.13;;;4.65;95.93
29433;BME280;16405;53.964;13.448;2023-02-21T04:04:01;100423.03;;;4.64;95.85
29433;BME280;16405;53.964;13.448;2023-02-21T04:06:27;100442.06;;;4.69;95.37
29433;BME280;16405;53.964;13.448;2023-02-21T04:08:53;100440.41;;;4.65;95.11
29433;BME280;16405;53.964;13.448;2023-02-21T04:11:27;100459.66;;;4.61;95.73
29433;BME280;16405;53.964;13.448;2023-02-21T04:13:53;100442.31;;;4.60;95.40
29433;BME280;16405;53.964;13.448;2023-02-21T04:16:19;100430.13;;;4.61;95.52
29433;BME280;16405;53.964;13.448;2023-02-21T04:18:45;100436.19;;;4.61;95.67
29433;BME280;16405;53.964;13.448;2023-02-21T04:21:20;100450.00;;;4.65;95.65
29433;BME280;16405;53.964;13.448;2023-02-21T04:23:50;100453.16;;;4.76;95.26
29433;BME280;16405;53.964;13.448;2023-02-21T04:26:29;100447.81;;;4.81;95.22
29433;BME280;16405;53.964;13.448;2023-02-21T04:28:55;100447.53;;;4.91;95.13
29433;BME280;16405;53.964;13.448;2023-02-21T04:31:27;100437.72;;;5.01;95.33
29433;BME280;16405;53.964;13.448;2023-02-21T04:33:52;100429.78;;;5.04;94.66
29433;BME280;16405;53.964;13.448;2023-02-21T04:36:18;100444.53;;;5.05;94.63
29433;BME280;16405;53.964;13.448;2023-02-21T04:38:44;100455.88;;;5.04;94.39
29433;BME280;16405;53.964;13.448;2023-02-21T04:41:10;100461.25;;;4.98;93.68
29433;BME280;16405;53.964;13.448;2023-02-21T04:43:36;100470.72;;;5.02;94.09
29433;BME280;16405;53.964;13.448;2023-02-21T04:46:14;100461.91;;;5.06;94.01
29433;BME280;16405;53.964;13.448;2023-02-21T04:48:46;100474.75;;;5.14;93.70
29433;BME280;16405;53.964;13.448;2023-02-21T04:51:15;100474.78;;;5.12;94.12
29433;BME280;16405;53.964;13.448;2023-02-21T04:53:52;100478.16;;;5.16;93.72
29433;BME280;16405;53.964;13.448;2023-02-21T04:56:24;100476.41;;;5.17;93.78
29433;BME280;16405;53.964;13.448;2023-02-21T04:59:00;100482.44;;;5.19;93.73
29433;BME280;16405;53.964;13.448;2023-02-21T05:01:29;100465.91;;;5.18;93.09
29433;BME280;16405;53.964;13.448;2023-02-21T05:04:16;100479.88;;;5.17;92.69
29433;BME280;16405;53.964;13.448;2023-02-21T05:06:41;100478.13;;;5.18;93.03
29433;BME280;16405;53.964;13.448;2023-02-21T05:09:07;100464.31;;;5.14;92.66
29433;BME280;16405;53.964;13.448;2023-02-21T05:11:34;100482.38;;;5.20;92.62
29433;BME280;16405;53.964;13.448;2023-02-21T05:14:08;100480.72;;;5.18;92.90
29433;BME280;16405;53.964;13.448;2023-02-21T05:16:46;100487.84;;;5.12;92.70
29433;BME280;16405;53.964;13.448;2023-02-21T05:19:12;100479.09;;;5.13;92.49
29433;BME280;16405;53.964;13.448;2023-02-21T05:21:56;100458.59;;;5.01;92.32
29433;BME280;16405;53.964;13.448;2023-02-21T05:24:39;100482.06;;;5.01;92.49
29433;BME280;16405;53.964;13.448;2023-02-21T05:27:16;100487.44;;;4.95;92.57
29433;BME280;16405;53.964;13.448;2023-02-21T05:29:54;100486.63;;;4.93;92.79
29433;BME280;16405;53.964;13.448;2023-02-21T05:32:21;100477.03;;;4.93;92.95
29433;BME280;16405;53.964;13.448;2023-02-21T05:34:47;100487.63;;;4.89;93.42
29433;BME280;16405;53.964;13.448;2023-02-21T05:37:23;100476.25;;;4.90;93.28
29433;BME280;16405;53.964;13.448;2023-02-21T05:39:50;100468.84;;;4.75;93.50
29433;BME280;16405;53.964;13.448;2023-02-21T05:42:15;100485.34;;;4.75;93.83
29433;BME280;16405;53.964;13.448;2023-02-21T05:44:47;100496.69;;;4.74;94.02
29433;BME280;16405;53.964;13.448;2023-02-21T05:47:14;100495.84;;;4.73;94.34
29433;BME280;16405;53.964;13.448;2023-02-21T05:49:40;100510.59;;;4.75;94.89
29433;BME280;16405;53.964;13.448;2023-02-21T05:52:09;100511.28;;;4.81;95.25
29433;BME280;16405;53.964;13.448;2023-02-21T05:54:44;100511.25;;;4.83;95.32
29433;BME280;16405;53.964;13.448;2023-02-21T05:57:10;100515.75;;;4.78;94.95
29433;BME280;16405;53.964;13.448;2023-02-21T05:59:37;100512.38;;;4.72;95.00
29433;BME280;16405;53.964;13.448;2023-02-21T06:02:14;100507.31;;;4.66;95.16
29433;BME280;16405;53.964;13.448;2023-02-21T06:04:57;100504.00;;;4.60;95.58
29433;BME280;16405;53.964;13.448;2023-02-21T06:07:23;100503.16;;;4.59;95.51
29433;BME280;16405;53.964;13.448;2023-02-21T06:09:56;100520.59;;;4.57;95.96
29433;BME280;16405;53.964;13.448;2023-02-21T06:12:22;100519.75;;;4.57;95.92
29433;BME280;16405;53.964;13.448;2023-02-21T06:14:48;100506.69;;;4.58;96.21
29433;BME280;16405;53.964;13.448;2023-02-21T06:17:21;100538.69;;;4.63;96.17
29433;BME280;16405;53.964;13.448;2023-02-21T06:19:49;100549.09;;;4.65;96.21
29433;BME280;16405;53.964;13.448;2023-02-21T06:22:15;100543.84;;;4.66;96.40
29433;BME280;16405;53.964;13.448;2023-02-21T06:24:41;100544.75;;;4.65;96.21
29433;BME280;16405;53.964;13.448;2023-02-21T06:27:14;100545.44;;;4.72;95.89
29433;BME280;16405;53.964;13.448;2023-02-21T06:29:43;100545.53;;;4.69;95.56
29433;BME280;16405;53.964;13.448;2023-02-21T06:32:09;100539.38;;;4.71;95.07
29433;BME280;16405;53.964;13.448;2023-02-21T06:34:41;100550.56;;;4.75;94.71
29433;BME280;16405;53.964;13.448;2023-02-21T06:37:07;100561.78;;;4.79;94.52
29433;BME280;16405;53.964;13.448;2023-02-21T06:39:33;100560.00;;;4.81;94.08
29433;BME280;16405;53.964;13.448;2023-02-21T06:42:14;100561.75;;;4.80;94.29
29433;BME280;16405;53.964;13.448;2023-02-21T06:44:48;100560.66;;;4.89;93.71
29433;BME280;16405;53.964;13.448;2023-02-21T06:47:15;100563.00;;;5.00;93.44
29433;BME280;16405;53.964;13.448;2023-02-21T06:49:41;100573.41;;;5.01;92.86
29433;BME280;16405;53.964;13.448;2023-02-21T06:52:08;100580.31;;;5.02;92.87
29433;BME280;16405;53.964;13.448;2023-02-21T06:54:41;100588.97;;;5.04;92.88
29433;BME280;16405;53.964;13.448;2023-02-21T06:57:07;100591.94;;;5.25;92.33
29433;BME280;16405;53.964;13.448;2023-02-21T06:59:33;100594.63;;;5.53;91.64
29433;BME280;16405;53.964;13.448;2023-02-21T07:01:59;100601.53;;;6.16;88.66
29433;BME280;16405;53.964;13.448;2023-02-21T07:04:51;100612.72;;;6.76;85.62
29433;BME280;16405;53.964;13.448;2023-02-21T07:07:17;100603.50;;;6.08;84.72
29433;BME280;16405;53.964;13.448;2023-02-21T07:09:43;100602.44;;;5.84;85.71
29433;BME280;16405;53.964;13.448;2023-02-21T07:12:18;100615.50;;;5.84;86.87
29433;BME280;16405;53.964;13.448;2023-02-21T07:14:44;100606.66;;;5.59;87.67
29433;BME280;16405;53.964;13.448;2023-02-21T07:17:13;100596.31;;;5.55;88.42
29433;BME280;16405;53.964;13.448;2023-02-21T07:19:41;100595.38;;;5.57;88.98
29433;BME280;16405;53.964;13.448;2023-02-21T07:22:08;100607.13;;;5.73;88.82
29433;BME280;16405;53.964;13.448;2023-02-21T07:24:37;100626.22;;;6.06;88.33
29433;BME280;16405;53.964;13.448;2023-02-21T07:27:19;100630.41;;;6.70;86.19
29433;BME280;16405;53.964;13.448;2023-02-21T07:30:13;100646.63;;;8.29;81.00
29433;BME280;16405;53.964;13.448;2023-02-21T07:32:39;100662.16;;;8.58;77.04
29433;BME280;16405;53.964;13.448;2023-02-21T07:35:05;100648.69;;;9.10;75.29
29433;BME280;16405;53.964;13.448;2023-02-21T07:37:36;100655.53;;;8.70;75.00
29433;BME280;16405;53.964;13.448;2023-02-21T07:40:04;100655.94;;;8.14;75.74
29433;BME280;16405;53.964;13.448;2023-02-21T07:42:32;100680.94;;;8.70;76.42
29433;BME280;16405;53.964;13.448;2023-02-21T07:44:58;100687.03;;;9.14;74.46
29433;BME280;16405;53.964;13.448;2023-02-21T07:47:33;100667.78;;;9.75;72.04
29433;BME280;16405;53.964;13.448;2023-02-21T07:50:09;100670.31;;;9.58;71.64
29433;BME280;16405;53.964;13.448;2023-02-21T07:52:42;100667.09;;;8.66;73.40
29433;BME280;16405;53.964;13.448;2023-02-21T07:55:14;100673.25;;;8.43;75.20
29433;BME280;16405;53.964;13.448;2023-02-21T07:57:40;100683.25;;;9.62;73.97
29433;BME280;16405;53.964;13.448;2023-02-21T08:00:07;100675.16;;;9.88;71.33
29433;BME280;16405;53.964;13.448;2023-02-21T08:02:33;100674.94;;;9.92;70.39
29433;BME280;16405;53.964;13.448;2023-02-21T08:05:08;100675.31;;;10.03;70.00
29433;BME280;16405;53.964;13.448;2023-02-21T08:07:37;100695.28;;;10.07;69.74
29433;BME280;16405;53.964;13.448;2023-02-21T08:10:25;100689.34;;;9.63;71.54
29433;BME280;16405;53.964;13.448;2023-02-21T08:12:54;100693.75;;;9.62;71.09
29433;BME280;16405;53.964;13.448;2023-02-21T08:15:20;100700.91;;;9.79;70.51
29433;BME280;16405;53.964;13.448;2023-02-21T08:17:50;100699.53;;;9.50;70.65
29433;BME280;16405;53.964;13.448;2023-02-21T08:20:17;100707.06;;;9.59;71.12
29433;BME280;16405;53.964;13.448;2023-02-21T08:22:43;100715.31;;;9.50;70.93
29433;BME280;16405;53.964;13.448;2023-02-21T08:25:11;100717.03;;;9.51;71.44
29433;BME280;16405;53.964;13.448;2023-02-21T08:27:46;100717.69;;;9.77;70.65
29433;BME280;16405;53.964;13.448;2023-02-21T08:30:25;100732.66;;;9.34;70.98
29433;BME280;16405;53.964;13.448;2023-02-21T08:32:51;100719.84;;;8.60;72.43
29433;BME280;16405;53.964;13.448;2023-02-21T08:35:18;100712.03;;;8.10;74.34
29433;BME280;16405;53.964;13.448;2023-02-21T08:37:53;100727.84;;;9.01;74.89
29433;BME280;16405;53.964;13.448;2023-02-21T08:40:31;100741.97;;;9.20;73.15
29433;BME280;16405;53.964;13.448;2023-02-21T08:42:59;100732.25;;;8.55;73.78
29433;BME280;16405;53.964;13.448;2023-02-21T08:45:26;100730.88;;;8.21;75.45
29433;BME280;16405;53.964;13.448;2023-02-21T08:47:56;100713.19;;;7.77;76.52
29433;BME280;16405;53.964;13.448;2023-02-21T08:50:27;100729.63;;;7.83;77.73
29433;BME280;16405;53.964;13.448;2023-02-21T08:52:54;100737.22;;;8.39;76.70
29433;BME280;16405;53.964;13.448;2023-02-21T08:55:23;100741.69;;;9.04;75.78
29433;BME280;16405;53.964;13.448;2023-02-21T08:57:57;100755.69;;;9.27;72.88
29433;BME280;16405;53.964;13.448;2023-02-21T09:00:25;100756.56;;;9.28;72.46
29433;BME280;16405;53.964;13.448;2023-02-21T09:02:57;100764.84;;;9.39;73.04
29433;BME280;16405;53.964;13.448;2023-02-21T09:05:28;100758.50;;;9.00;73.39
29433;BME280;16405;53.964;13.448;2023-02-21T09:07:56;100766.69;;;9.37;72.56
29433;BME280;16405;53.964;13.448;2023-02-21T09:10:32;100796.03;;;9.89;72.38
29433;BME280;16405;53.964;13.448;2023-02-21T09:13:06;100763.66;;;9.68;71.21
29433;BME280;16405;53.964;13.448;2023-02-21T09:15:32;100775.06;;;9.47;71.82
29433;BME280;16405;53.964;13.448;2023-02-21T09:17:58;100783.38;;;9.14;72.25
29433;BME280;16405;53.964;13.448;2023-02-21T09:20:28;100786.56;;;9.44;72.60
29433;BME280;16405;53.964;13.448;2023-02-21T09:22:57;100784.41;;;8.88;73.88
29433;BME280;16405;53.964;13.448;2023-02-21T09:25:24;100781.41;;;9.19;73.48
29433;BME280;16405;53.964;13.448;2023-02-21T09:27:52;100773.34;;;8.79;73.60
29433;BME280;16405;53.964;13.448;2023-02-21T09:30:27;100799.03;;;8.71;75.15
29433;BME280;16405;53.964;13.448;2023-02-21T09:32:55;100793.66;;;8.51;76.21
29433;BME280;16405;53.964;13.448;2023-02-21T09:35:21;100792.28;;;8.40;76.96
29433;BME280;16405;53.964;13.448;2023-02-21T09:37:52;100797.69;;;8.36;76.94
29433;BME280;16405;53.964;13.448;2023-02-21T09:40:58;100790.19;;;8.00;76.61
29433;BME280;16405;53.964;13.448;2023-02-21T09:43:43;100798.41;;;7.64;78.24
29433;BME280;16405;53.964;13.448;2023-02-21T09:46:17;100799.28;;;7.65;79.79
29433;BME280;16405;53.964;13.448;2023-02-21T09:48:49;100791.47;;;7.36;79.87
29433;BME280;16405;53.964;13.448;2023-02-21T09:51:20;100795.47;;;7.20;80.17
29433;BME280;16405;53.964;13.448;2023-02-21T09:53:54;100805.00;;;7.21;80.64
29433;BME280;16405;53.964;13.448;2023-02-21T09:56:34;100811.31;;;7.15;81.13
29433;BME280;16405;53.964;13.448;2023-02-21T09:59:11;100808.72;;;7.15;81.68
29433;BME280;16405;53.964;13.448;2023-02-21T10:10:53;100820.69;;;7.23;83.00
29433;BME280;16405;53.964;13.448;2023-02-21T10:13:44;100826.75;;;7.25;82.98
29433;BME280;16405;53.964;13.448;2023-02-21T10:16:32;100831.13;;;7.24;82.46
29433;BME280;16405;53.964;13.448;2023-02-21T10:19:24;100829.22;;;7.01;81.93
29433;BME280;16405;53.964;13.448;2023-02-21T10:21:55;100825.75;;;7.01;82.24
29433;BME280;16405;53.964;13.448;2023-02-21T10:24:28;100827.66;;;6.95;81.20
29433;BME280;16405;53.964;13.448;2023-02-21T10:27:29;100835.06;;;7.09;81.88
29433;BME280;16405;53.964;13.448;2023-02-21T10:30:00;100831.69;;;7.06;81.67
29433;BME280;16405;53.964;13.448;2023-02-21T10:32:31;100822.34;;;6.97;81.73
29433;BME280;16405;53.964;13.448;2023-02-21T10:35:02;100825.59;;;7.05;82.17
29433;BME280;16405;53.964;13.448;2023-02-21T10:37:42;100840.44;;;7.05;81.64
29433;BME280;16405;53.964;13.448;2023-02-21T10:43:30;100841.47;;;6.99;81.21
29433;BME280;16405;53.964;13.448;2023-02-21T10:48:54;100839.78;;;6.98;81.72
29433;BME280;16405;53.964;13.448;2023-02-21T10:51:39;100856.38;;;6.97;81.18
29433;BME280;16405;53.964;13.448;2023-02-21T10:54:24;100851.78;;;7.05;80.51
29433;BME280;16405;53.964;13.448;2023-02-21T10:56:52;100844.72;;;7.07;81.06
29433;BME280;16405;53.964;13.448;2023-02-21T10:59:40;100856.59;;;7.19;82.10
29433;BME280;16405;53.964;13.448;2023-02-21T11:02:37;100864.72;;;7.10;81.37
29433;BME280;16405;53.964;13.448;2023-02-21T11:05:16;100853.22;;;7.15;81.32
29433;BME280;16405;53.964;13.448;2023-02-21T11:08:08;100861.88;;;7.17;81.18
29433;BME280;16405;53.964;13.448;2023-02-21T11:10:42;100852.03;;;7.26;81.72
29433;BME280;16405;53.964;13.448;2023-02-21T11:13:20;100868.53;;;7.28;81.71
29433;BME280;16405;53.964;13.448;2023-02-21T11:18:40;100858.94;;;7.28;80.96
29433;BME280;16405;53.964;13.448;2023-02-21T11:21:19;100859.91;;;7.26;80.37
29433;BME280;16405;53.964;13.448;2023-02-21T11:23:56;100855.19;;;7.37;81.30
29433;BME280;16405;53.964;13.448;2023-02-21T11:26:50;100855.19;;;7.37;79.83
29433;BME280;16405;53.964;13.448;2023-02-21T11:29:24;100855.13;;;7.38;79.45
29433;BME280;16405;53.964;13.448;2023-02-21T11:31:57;100861.22;;;7.39;80.14
29433;BME280;16405;53.964;13.448;2023-02-21T11:34:29;100856.53;;;7.49;80.58
29433;BME280;16405;53.964;13.448;2023-02-21T11:37:02;100858.53;;;7.40;80.20
29433;BME280;16405;53.964;13.448;2023-02-21T11:39:35;100856.66;;;7.17;79.93
29433;BME280;16405;53.964;13.448;2023-02-21T11:42:03;100854.09;;;7.14;80.72
29433;BME280;16405;53.964;13.448;2023-02-21T11:44:42;100871.59;;;7.14;80.33
29433;BME280;16405;53.964;13.448;2023-02-21T11:47:22;100868.81;;;7.18;80.22
29433;BME280;16405;53.964;13.448;2023-02-21T11:56:06;100866.88;;;7.25;80.01
29433;BME280;16405;53.964;13.448;2023-02-21T11:58:57;100883.72;;;7.16;78.62
29433;BME280;16405;53.964;13.448;2023-02-21T12:01:49;100893.22;;;7.21;80.38
29433;BME280;16405;53.964;13.448;2023-02-21T12:07:53;100889.88;;;7.15;78.54
29433;BME280;16405;53.964;13.448;2023-02-21T12:11:10;100884.00;;;7.07;78.10
29433;BME280;16405;53.964;13.448;2023-02-21T12:20:35;100905.66;;;7.12;79.20
29433;BME280;16405;53.964;13.448;2023-02-21T12:38:35;100903.41;;;7.30;78.86
29433;BME280;16405;53.964;13.448;2023-02-21T12:44:23;100897.50;;;7.23;78.88
29433;BME280;16405;53.964;13.448;2023-02-21T12:47:08;100894.59;;;7.04;77.30
29433;BME280;16405;53.964;13.448;2023-02-21T12:50:07;100912.16;;;6.99;78.05
29433;BME280;16405;53.964;13.448;2023-02-21T12:53:01;100915.44;;;7.07;78.89
29433;BME280;16405;53.964;13.448;2023-02-21T12:55:51;100904.16;;;7.05;78.89
29433;BME280;16405;53.964;13.448;2023-02-21T12:59:14;100920.66;;;7.07;79.32
29433;BME280;16405;53.964;13.448;2023-02-21T13:02:01;100914.63;;;7.05;78.81
29433;BME280;16405;53.964;13.448;2023-02-21T13:04:46;100907.88;;;6.96;78.11
29433;BME280;16405;53.964;13.448;2023-02-21T13:10:25;100930.94;;;7.15;78.75
29433;BME280;16405;53.964;13.448;2023-02-21T13:13:14;100925.09;;;7.05;77.51
29433;BME280;16405;53.964;13.448;2023-02-21T13:15:49;100923.47;;;7.01;77.72
29433;BME280;16405;53.964;13.448;2023-02-21T13:18:44;100928.78;;;6.98;77.63
29433;BME280;16405;53.964;13.448;2023-02-21T13:24:15;100930.59;;;6.96;77.17
29433;BME280;16405;53.964;13.448;2023-02-21T13:32:59;100942.03;;;6.93;76.70
29433;BME280;16405;53.964;13.448;2023-02-21T13:35:37;100933.94;;;7.01;77.26
29433;BME280;16405;53.964;13.448;2023-02-21T13:38:09;100930.53;;;6.97;77.40
29433;BME280;16405;53.964;13.448;2023-02-21T13:41:01;100937.47;;;7.00;77.37
29433;BME280;16405;53.964;13.448;2023-02-21T13:43:31;100948.91;;;6.96;77.80
29433;BME280;16405;53.964;13.448;2023-02-21T13:52:35;100940.16;;;6.97;77.60
29433;BME280;16405;53.964;13.448;2023-02-21T13:57:43;100946.81;;;7.09;78.20
29433;BME280;16405;53.964;13.448;2023-02-21T14:08:39;100975.00;;;6.99;77.82
29433;BME280;16405;53.964;13.448;2023-02-21T14:11:23;100973.44;;;6.93;76.82
29433;BME280;16405;53.964;13.448;2023-02-21T14:13:55;100975.28;;;6.90;77.02
29433;BME280;16405;53.964;13.448;2023-02-21T14:19:07;100979.13;;;6.76;77.53
29433;BME280;16405;53.964;13.448;2023-02-21T14:22:16;100977.34;;;6.77;77.38
29433;BME280;16405;53.964;13.448;2023-02-21T14:24:47;100980.94;;;6.73;77.37
29433;BME280;16405;53.964;13.448;2023-02-21T14:32:49;100982.63;;;6.75;77.13
29433;BME280;16405;53.964;13.448;2023-02-21T14:38:05;100987.81;;;6.77;76.96
29433;BME280;16405;53.964;13.448;2023-02-21T14:46:43;100997.34;;;6.80;77.77
29433;BME280;16405;53.964;13.448;2023-02-21T14:49:45;100999.16;;;6.77;77.94
29433;BME280;16405;53.964;13.448;2023-02-21T14:52:40;101009.63;;;6.77;77.50
29433;BME280;16405;53.964;13.448;2023-02-21T15:04:33;101023.22;;;6.92;77.48
29433;BME280;16405;53.964;13.448;2023-02-21T15:10:25;101025.53;;;7.03;77.19
29433;BME280;16405;53.964;13.448;2023-02-21T15:13:04;101032.44;;;7.05;77.43
29433;BME280;16405;53.964;13.448;2023-02-21T15:15:36;101031.59;;;7.05;77.88
29433;BME280;16405;53.964;13.448;2023-02-21T15:18:09;101025.44;;;7.06;77.36
29433;BME280;16405;53.964;13.448;2023-02-21T15:20:41;101032.34;;;7.08;78.27
29433;BME280;16405;53.964;13.448;2023-02-21T15:23:15;101028.81;;;7.11;77.44
29433;BME280;16405;53.964;13.448;2023-02-21T15:25:54;101030.50;;;7.12;77.59
29433;BME280;16405;53.964;13.448;2023-02-21T15:28:29;101025.25;;;7.13;77.93
29433;BME280;16405;53.964;13.448;2023-02-21T15:31:08;101032.94;;;7.19;77.97
29433;BME280;16405;53.964;13.448;2023-02-21T15:33:41;101032.00;;;7.22;77.69
29433;BME280;16405;53.964;13.448;2023-02-21T15:36:20;101032.81;;;7.24;77.75
29433;BME280;16405;53.964;13.448;2023-02-21T15:39:19;101038.06;;;7.23;77.88
29433;BME280;16405;53.964;13.448;2023-02-21T15:41:49;101043.44;;;7.18;78.30
29433;BME280;16405;53.964;13.448;2023-02-21T15:44:46;101045.09;;;7.22;78.41
29433;BME280;16405;53.964;13.448;2023-02-21T15:47:21;101052.16;;;7.18;78.30
29433;BME280;16405;53.964;13.448;2023-02-21T15:50:34;101047.91;;;7.14;79.08
29433;BME280;16405;53.964;13.448;2023-02-21T15:53:19;101046.22;;;7.12;78.47
29433;BME280;16405;53.964;13.448;2023-02-21T15:55:47;101048.88;;;7.10;79.48
29433;BME280;16405;53.964;13.448;2023-02-21T15:58:24;101054.13;;;7.10;79.37
29433;BME280;16405;53.964;13.448;2023-02-21T16:01:07;101043.69;;;7.09;79.97